sensor_id;sensor_type;location;lat;lon;timestamp;P1;durP1;ratioP1;P2;durP2;ratioP2
19436;SDS011;9854;50.968;4.168;2023-03-24T00:01:02;3.72;;;2.08;;
19436;SDS011;9854;50.968;4.168;2023-03-24T00:03:30;5.22;;;1.98;;
19436;SDS011;9854;50.968;4.168;2023-03-24T00:06:00;3.53;;;2.10;;
19436;SDS011;9854;50.968;4.168;2023-03-24T00:08:31;5.82;;;2.17;;
19436;SDS011;9854;50.968;4.168;2023-03-24T00:11:06;3.92;;;2.20;;
19436;SDS011;9854;50.968;4.168;2023-03-24T00:13:35;5.55;;;2.58;;
19436;SDS011;9854;50.968;4.168;2023-03-24T00:16:03;6.03;;;2.40;;
19436;SDS011;9854;50.968;4.168;2023-03-24T00:18:30;4.18;;;2.40;;
19436;SDS011;9854;50.968;4.168;2023-03-24T00:20:56;4.85;;;2.60;;
19436;SDS011;9854;50.968;4.168;2023-03-24T00:23:22;4.43;;;2.20;;
19436;SDS011;9854;50.968;4.168;2023-03-24T00:26:00;5.00;;;2.50;;
19436;SDS011;9854;50.968;4.168;2023-03-24T00:28:32;2.95;;;2.30;;
19436;SDS011;9854;50.968;4.168;2023-03-24T00:30:59;3.25;;;2.30;;
19436;SDS011;9854;50.968;4.168;2023-03-24T00:33:26;4.50;;;2.30;;
19436;SDS011;9854;50.968;4.168;2023-03-24T00:35:56;3.50;;;2.08;;
19436;SDS011;9854;50.968;4.168;2023-03-24T00:38:23;4.32;;;2.22;;
19436;SDS011;9854;50.968;4.168;2023-03-24T00:40:49;3.80;;;2.25;;
19436;SDS011;9854;50.968;4.168;2023-03-24T00:43:15;6.75;;;2.70;;
19436;SDS011;9854;50.968;4.168;2023-03-24T00:45:41;2.78;;;2.40;;
19436;SDS011;9854;50.968;4.168;2023-03-24T00:48:10;3.85;;;2.30;;
19436;SDS011;9854;50.968;4.168;2023-03-24T00:50:44;4.55;;;2.33;;
19436;SDS011;9854;50.968;4.168;2023-03-24T00:53:14;3.28;;;2.40;;
19436;SDS011;9854;50.968;4.168;2023-03-24T00:55:42;3.22;;;2.33;;
19436;SDS011;9854;50.968;4.168;2023-03-24T00:58:10;4.30;;;2.28;;
19436;SDS011;9854;50.968;4.168;2023-03-24T01:00:42;3.78;;;2.58;;
19436;SDS011;9854;50.968;4.168;2023-03-24T01:03:08;4.43;;;2.30;;
19436;SDS011;9854;50.968;4.168;2023-03-24T01:05:34;4.47;;;2.40;;
19436;SDS011;9854;50.968;4.168;2023-03-24T01:08:01;2.40;;;2.13;;
19436;SDS011;9854;50.968;4.168;2023-03-24T01:10:28;4.07;;;2.45;;
19436;SDS011;9854;50.968;4.168;2023-03-24T01:12:56;2.88;;;2.35;;
19436;SDS011;9854;50.968;4.168;2023-03-24T01:15:25;5.82;;;2.47;;
19436;SDS011;9854;50.968;4.168;2023-03-24T01:17:54;2.55;;;2.35;;
19436;SDS011;9854;50.968;4.168;2023-03-24T01:20:20;5.95;;;2.50;;
19436;SDS011;9854;50.968;4.168;2023-03-24T01:22:48;3.50;;;2.15;;
19436;SDS011;9854;50.968;4.168;2023-03-24T01:25:19;4.45;;;2.53;;
19436;SDS011;9854;50.968;4.168;2023-03-24T01:27:47;3.33;;;2.40;;
19436;SDS011;9854;50.968;4.168;2023-03-24T01:30:15;3.25;;;2.60;;
19436;SDS011;9854;50.968;4.168;2023-03-24T01:32:42;2.85;;;2.50;;
19436;SDS011;9854;50.968;4.168;2023-03-24T01:35:09;3.28;;;2.22;;
19436;SDS011;9854;50.968;4.168;2023-03-24T01:37:35;4.35;;;2.60;;
19436;SDS011;9854;50.968;4.168;2023-03-24T01:40:02;5.75;;;2.53;;
19436;SDS011;9854;50.968;4.168;2023-03-24T01:42:33;3.17;;;2.30;;
19436;SDS011;9854;50.968;4.168;2023-03-24T01:45:00;4.50;;;2.17;;
19436;SDS011;9854;50.968;4.168;2023-03-24T01:48:00;2.30;;;2.10;;
19436;SDS011;9854;50.968;4.168;2023-03-24T01:50:27;6.65;;;2.60;;
19436;SDS011;9854;50.968;4.168;2023-03-24T01:52:54;3.15;;;2.40;;
19436;SDS011;9854;50.968;4.168;2023-03-24T01:55:20;2.67;;;1.90;;
19436;SDS011;9854;50.968;4.168;2023-03-24T01:57:50;2.20;;;1.30;;
19436;SDS011;9854;50.968;4.168;2023-03-24T02:00:19;2.03;;;1.50;;
19436;SDS011;9854;50.968;4.168;2023-03-24T02:02:49;2.75;;;1.40;;
19436;SDS011;9854;50.968;4.168;2023-03-24T02:05:28;2.38;;;1.10;;
19436;SDS011;9854;50.968;4.168;2023-03-24T02:10:30;1.95;;;1.00;;
19436;SDS011;9854;50.968;4.168;2023-03-24T02:12:58;2.20;;;1.10;;
19436;SDS011;9854;50.968;4.168;2023-03-24T02:15:24;1.73;;;1.13;;
19436;SDS011;9854;50.968;4.168;2023-03-24T02:20:45;3.60;;;1.10;;
19436;SDS011;9854;50.968;4.168;2023-03-24T02:26:32;3.10;;;1.30;;
19436;SDS011;9854;50.968;4.168;2023-03-24T02:43:15;4.68;;;1.58;;
19436;SDS011;9854;50.968;4.168;2023-03-24T02:54:13;5.35;;;1.45;;
19436;SDS011;9854;50.968;4.168;2023-03-24T02:57:01;5.22;;;1.50;;
19436;SDS011;9854;50.968;4.168;2023-03-24T02:59:39;6.65;;;1.50;;
19436;SDS011;9854;50.968;4.168;2023-03-24T03:02:14;6.25;;;1.92;;
19436;SDS011;9854;50.968;4.168;2023-03-24T03:04:45;9.63;;;2.00;;
19436;SDS011;9854;50.968;4.168;2023-03-24T03:07:17;9.07;;;2.10;;
19436;SDS011;9854;50.968;4.168;2023-03-24T03:09:49;10.60;;;2.38;;
19436;SDS011;9854;50.968;4.168;2023-03-24T03:12:20;7.75;;;2.10;;
19436;SDS011;9854;50.968;4.168;2023-03-24T03:14:50;7.97;;;2.20;;
19436;SDS011;9854;50.968;4.168;2023-03-24T03:17:21;11.77;;;2.22;;
19436;SDS011;9854;50.968;4.168;2023-03-24T03:20:06;8.70;;;2.20;;
19436;SDS011;9854;50.968;4.168;2023-03-24T03:22:45;7.30;;;2.10;;
19436;SDS011;9854;50.968;4.168;2023-03-24T03:25:21;8.88;;;2.17;;
19436;SDS011;9854;50.968;4.168;2023-03-24T03:27:53;11.50;;;2.30;;
19436;SDS011;9854;50.968;4.168;2023-03-24T03:30:24;7.25;;;1.95;;
19436;SDS011;9854;50.968;4.168;2023-03-24T03:32:58;9.50;;;2.38;;
19436;SDS011;9854;50.968;4.168;2023-03-24T03:35:28;9.73;;;2.47;;
19436;SDS011;9854;50.968;4.168;2023-03-24T03:38:12;13.25;;;3.25;;
19436;SDS011;9854;50.968;4.168;2023-03-24T03:40:51;12.55;;;2.78;;
19436;SDS011;9854;50.968;4.168;2023-03-24T03:43:23;9.82;;;2.58;;
19436;SDS011;9854;50.968;4.168;2023-03-24T03:45:51;12.80;;;2.83;;
19436;SDS011;9854;50.968;4.168;2023-03-24T03:48:17;11.18;;;2.70;;
19436;SDS011;9854;50.968;4.168;2023-03-24T03:50:43;15.30;;;2.55;;
19436;SDS011;9854;50.968;4.168;2023-03-24T03:53:10;15.48;;;2.90;;
19436;SDS011;9854;50.968;4.168;2023-03-24T03:55:38;11.80;;;2.40;;
19436;SDS011;9854;50.968;4.168;2023-03-24T03:58:05;15.23;;;2.90;;
19436;SDS011;9854;50.968;4.168;2023-03-24T04:00:31;19.92;;;4.13;;
19436;SDS011;9854;50.968;4.168;2023-03-24T04:12:18;20.13;;;3.72;;
19436;SDS011;9854;50.968;4.168;2023-03-24T04:17:04;16.92;;;3.20;;
19436;SDS011;9854;50.968;4.168;2023-03-24T04:24:55;11.35;;;2.95;;
19436;SDS011;9854;50.968;4.168;2023-03-24T04:27:31;9.95;;;2.47;;
19436;SDS011;9854;50.968;4.168;2023-03-24T04:32:47;19.80;;;3.75;;
19436;SDS011;9854;50.968;4.168;2023-03-24T04:38:18;16.48;;;2.85;;
19436;SDS011;9854;50.968;4.168;2023-03-24T04:40:47;17.90;;;3.35;;
19436;SDS011;9854;50.968;4.168;2023-03-24T04:43:16;15.38;;;3.42;;
19436;SDS011;9854;50.968;4.168;2023-03-24T04:45:45;14.27;;;3.13;;
19436;SDS011;9854;50.968;4.168;2023-03-24T04:48:14;21.45;;;3.58;;
19436;SDS011;9854;50.968;4.168;2023-03-24T04:50:43;19.63;;;3.50;;
19436;SDS011;9854;50.968;4.168;2023-03-24T04:53:17;19.00;;;3.08;;
19436;SDS011;9854;50.968;4.168;2023-03-24T04:58:19;18.95;;;3.35;;
19436;SDS011;9854;50.968;4.168;2023-03-24T05:00:46;15.52;;;2.95;;
19436;SDS011;9854;50.968;4.168;2023-03-24T05:03:13;18.75;;;3.38;;
19436;SDS011;9854;50.968;4.168;2023-03-24T05:05:40;13.82;;;2.97;;
19436;SDS011;9854;50.968;4.168;2023-03-24T05:08:10;15.80;;;3.67;;
19436;SDS011;9854;50.968;4.168;2023-03-24T05:10:37;21.35;;;3.50;;
19436;SDS011;9854;50.968;4.168;2023-03-24T05:13:03;17.98;;;3.65;;
19436;SDS011;9854;50.968;4.168;2023-03-24T05:15:30;14.27;;;2.65;;
19436;SDS011;9854;50.968;4.168;2023-03-24T05:17:55;11.90;;;3.00;;
19436;SDS011;9854;50.968;4.168;2023-03-24T05:20:22;13.13;;;3.42;;
19436;SDS011;9854;50.968;4.168;2023-03-24T05:22:48;15.27;;;3.60;;
19436;SDS011;9854;50.968;4.168;2023-03-24T05:25:14;17.45;;;3.72;;
19436;SDS011;9854;50.968;4.168;2023-03-24T05:27:41;14.32;;;3.22;;
19436;SDS011;9854;50.968;4.168;2023-03-24T05:30:07;15.10;;;3.22;;
19436;SDS011;9854;50.968;4.168;2023-03-24T05:32:33;14.68;;;3.03;;
19436;SDS011;9854;50.968;4.168;2023-03-24T05:34:59;19.33;;;3.70;;
19436;SDS011;9854;50.968;4.168;2023-03-24T05:37:25;16.63;;;3.90;;
19436;SDS011;9854;50.968;4.168;2023-03-24T05:39:51;17.13;;;3.75;;
19436;SDS011;9854;50.968;4.168;2023-03-24T05:42:17;17.02;;;3.50;;
19436;SDS011;9854;50.968;4.168;2023-03-24T05:44:44;18.20;;;3.72;;
19436;SDS011;9854;50.968;4.168;2023-03-24T05:47:10;22.42;;;3.90;;
19436;SDS011;9854;50.968;4.168;2023-03-24T05:49:37;16.85;;;3.75;;
19436;SDS011;9854;50.968;4.168;2023-03-24T05:52:03;19.42;;;3.35;;
19436;SDS011;9854;50.968;4.168;2023-03-24T05:54:30;18.88;;;3.72;;
19436;SDS011;9854;50.968;4.168;2023-03-24T05:56:58;19.05;;;3.67;;
19436;SDS011;9854;50.968;4.168;2023-03-24T05:59:24;16.58;;;3.33;;
19436;SDS011;9854;50.968;4.168;2023-03-24T06:01:50;13.57;;;3.35;;
19436;SDS011;9854;50.968;4.168;2023-03-24T06:04:17;16.77;;;4.18;;
19436;SDS011;9854;50.968;4.168;2023-03-24T06:06:44;16.30;;;3.80;;
19436;SDS011;9854;50.968;4.168;2023-03-24T06:09:11;16.30;;;3.85;;
19436;SDS011;9854;50.968;4.168;2023-03-24T06:11:38;16.55;;;3.53;;
19436;SDS011;9854;50.968;4.168;2023-03-24T06:14:04;15.07;;;3.47;;
19436;SDS011;9854;50.968;4.168;2023-03-24T06:16:32;20.08;;;3.95;;
19436;SDS011;9854;50.968;4.168;2023-03-24T06:19:02;18.67;;;3.85;;
19436;SDS011;9854;50.968;4.168;2023-03-24T06:21:30;18.45;;;3.53;;
19436;SDS011;9854;50.968;4.168;2023-03-24T06:23:59;19.13;;;3.67;;
19436;SDS011;9854;50.968;4.168;2023-03-24T06:26:25;26.48;;;4.53;;
19436;SDS011;9854;50.968;4.168;2023-03-24T06:28:54;14.65;;;3.33;;
19436;SDS011;9854;50.968;4.168;2023-03-24T06:31:20;15.65;;;3.70;;
19436;SDS011;9854;50.968;4.168;2023-03-24T06:33:47;15.35;;;3.80;;
19436;SDS011;9854;50.968;4.168;2023-03-24T06:36:15;15.57;;;3.72;;
19436;SDS011;9854;50.968;4.168;2023-03-24T06:38:41;11.15;;;3.55;;
19436;SDS011;9854;50.968;4.168;2023-03-24T06:41:07;15.25;;;3.60;;
19436;SDS011;9854;50.968;4.168;2023-03-24T06:43:33;15.23;;;3.60;;
19436;SDS011;9854;50.968;4.168;2023-03-24T06:45:58;16.00;;;3.75;;
19436;SDS011;9854;50.968;4.168;2023-03-24T06:48:25;21.25;;;3.33;;
19436;SDS011;9854;50.968;4.168;2023-03-24T06:50:51;27.08;;;4.15;;
19436;SDS011;9854;50.968;4.168;2023-03-24T06:53:17;14.27;;;3.72;;
19436;SDS011;9854;50.968;4.168;2023-03-24T06:55:45;15.82;;;3.65;;
19436;SDS011;9854;50.968;4.168;2023-03-24T06:58:11;18.10;;;3.88;;
19436;SDS011;9854;50.968;4.168;2023-03-24T07:00:38;14.05;;;3.05;;
19436;SDS011;9854;50.968;4.168;2023-03-24T07:03:05;16.38;;;3.33;;
19436;SDS011;9854;50.968;4.168;2023-03-24T07:05:32;12.73;;;3.55;;
19436;SDS011;9854;50.968;4.168;2023-03-24T07:08:02;18.33;;;3.65;;
19436;SDS011;9854;50.968;4.168;2023-03-24T07:10:28;22.67;;;4.05;;
19436;SDS011;9854;50.968;4.168;2023-03-24T07:12:53;13.75;;;3.22;;
19436;SDS011;9854;50.968;4.168;2023-03-24T07:15:19;15.60;;;3.53;;
19436;SDS011;9854;50.968;4.168;2023-03-24T07:17:45;12.75;;;3.35;;
19436;SDS011;9854;50.968;4.168;2023-03-24T07:20:11;13.05;;;3.53;;
19436;SDS011;9854;50.968;4.168;2023-03-24T07:22:37;13.48;;;3.13;;
19436;SDS011;9854;50.968;4.168;2023-03-24T07:25:03;16.35;;;3.92;;
19436;SDS011;9854;50.968;4.168;2023-03-24T07:27:30;24.75;;;3.67;;
19436;SDS011;9854;50.968;4.168;2023-03-24T07:30:02;15.13;;;3.33;;
19436;SDS011;9854;50.968;4.168;2023-03-24T07:32:28;21.33;;;3.22;;
19436;SDS011;9854;50.968;4.168;2023-03-24T07:34:58;16.17;;;2.85;;
19436;SDS011;9854;50.968;4.168;2023-03-24T07:37:25;12.02;;;3.40;;
19436;SDS011;9854;50.968;4.168;2023-03-24T07:39:51;21.02;;;3.45;;
19436;SDS011;9854;50.968;4.168;2023-03-24T07:42:16;11.63;;;3.33;;
19436;SDS011;9854;50.968;4.168;2023-03-24T07:44:42;12.45;;;3.30;;
19436;SDS011;9854;50.968;4.168;2023-03-24T07:47:08;16.50;;;3.58;;
19436;SDS011;9854;50.968;4.168;2023-03-24T07:49:35;14.50;;;3.85;;
19436;SDS011;9854;50.968;4.168;2023-03-24T07:52:00;13.73;;;3.47;;
19436;SDS011;9854;50.968;4.168;2023-03-24T07:54:30;19.25;;;3.10;;
19436;SDS011;9854;50.968;4.168;2023-03-24T07:56:57;12.30;;;3.17;;
19436;SDS011;9854;50.968;4.168;2023-03-24T07:59:23;19.77;;;3.67;;
19436;SDS011;9854;50.968;4.168;2023-03-24T08:01:49;18.02;;;3.47;;
19436;SDS011;9854;50.968;4.168;2023-03-24T08:04:14;18.08;;;3.28;;
19436;SDS011;9854;50.968;4.168;2023-03-24T08:06:43;13.07;;;3.30;;
19436;SDS011;9854;50.968;4.168;2023-03-24T08:09:10;10.25;;;2.97;;
19436;SDS011;9854;50.968;4.168;2023-03-24T08:11:36;14.77;;;3.50;;
19436;SDS011;9854;50.968;4.168;2023-03-24T08:14:02;11.05;;;3.15;;
19436;SDS011;9854;50.968;4.168;2023-03-24T08:16:28;13.25;;;3.15;;
19436;SDS011;9854;50.968;4.168;2023-03-24T08:18:54;11.13;;;3.33;;
19436;SDS011;9854;50.968;4.168;2023-03-24T08:21:22;16.95;;;3.42;;
19436;SDS011;9854;50.968;4.168;2023-03-24T08:23:49;12.27;;;3.13;;
19436;SDS011;9854;50.968;4.168;2023-03-24T08:26:15;16.80;;;3.63;;
19436;SDS011;9854;50.968;4.168;2023-03-24T08:28:41;11.35;;;2.40;;
19436;SDS011;9854;50.968;4.168;2023-03-24T08:31:07;9.98;;;2.97;;
19436;SDS011;9854;50.968;4.168;2023-03-24T08:33:33;10.80;;;2.70;;
19436;SDS011;9854;50.968;4.168;2023-03-24T08:35:59;11.50;;;3.08;;
19436;SDS011;9854;50.968;4.168;2023-03-24T08:38:26;13.13;;;2.67;;
19436;SDS011;9854;50.968;4.168;2023-03-24T08:40:55;10.57;;;3.05;;
19436;SDS011;9854;50.968;4.168;2023-03-24T08:43:23;15.77;;;3.10;;
19436;SDS011;9854;50.968;4.168;2023-03-24T08:45:49;15.27;;;3.47;;
19436;SDS011;9854;50.968;4.168;2023-03-24T08:48:15;18.50;;;3.25;;
19436;SDS011;9854;50.968;4.168;2023-03-24T08:50:41;11.40;;;2.80;;
19436;SDS011;9854;50.968;4.168;2023-03-24T08:53:08;13.65;;;3.25;;
19436;SDS011;9854;50.968;4.168;2023-03-24T08:55:37;13.70;;;3.58;;
19436;SDS011;9854;50.968;4.168;2023-03-24T08:58:06;13.57;;;3.60;;
19436;SDS011;9854;50.968;4.168;2023-03-24T09:00:32;9.75;;;3.13;;
19436;SDS011;9854;50.968;4.168;2023-03-24T09:02:58;14.35;;;3.58;;
19436;SDS011;9854;50.968;4.168;2023-03-24T09:05:25;12.90;;;3.80;;
19436;SDS011;9854;50.968;4.168;2023-03-24T09:07:51;11.27;;;3.65;;
19436;SDS011;9854;50.968;4.168;2023-03-24T09:10:18;12.20;;;3.95;;
19436;SDS011;9854;50.968;4.168;2023-03-24T09:12:44;15.93;;;3.88;;
19436;SDS011;9854;50.968;4.168;2023-03-24T09:15:11;21.92;;;4.63;;
19436;SDS011;9854;50.968;4.168;2023-03-24T09:17:37;12.20;;;5.28;;
19436;SDS011;9854;50.968;4.168;2023-03-24T09:20:04;14.63;;;3.38;;
19436;SDS011;9854;50.968;4.168;2023-03-24T09:22:38;15.68;;;5.22;;
19436;SDS011;9854;50.968;4.168;2023-03-24T09:25:09;11.77;;;3.20;;
19436;SDS011;9854;50.968;4.168;2023-03-24T09:27:37;12.25;;;3.63;;
19436;SDS011;9854;50.968;4.168;2023-03-24T09:30:04;15.02;;;4.40;;
19436;SDS011;9854;50.968;4.168;2023-03-24T09:32:31;17.35;;;3.80;;
19436;SDS011;9854;50.968;4.168;2023-03-24T09:34:58;18.13;;;5.10;;
19436;SDS011;9854;50.968;4.168;2023-03-24T09:37:23;16.30;;;4.57;;
19436;SDS011;9854;50.968;4.168;2023-03-24T09:39:49;14.25;;;5.03;;
19436;SDS011;9854;50.968;4.168;2023-03-24T09:42:22;12.13;;;3.65;;
19436;SDS011;9854;50.968;4.168;2023-03-24T09:44:52;15.30;;;4.05;;
19436;SDS011;9854;50.968;4.168;2023-03-24T09:47:26;15.05;;;4.35;;
19436;SDS011;9854;50.968;4.168;2023-03-24T09:50:08;15.77;;;3.65;;
19436;SDS011;9854;50.968;4.168;2023-03-24T09:52:43;12.55;;;3.40;;
19436;SDS011;9854;50.968;4.168;2023-03-24T09:55:15;12.32;;;3.17;;
19436;SDS011;9854;50.968;4.168;2023-03-24T09:57:50;8.93;;;3.53;;
19436;SDS011;9854;50.968;4.168;2023-03-24T10:00:23;10.35;;;3.08;;
19436;SDS011;9854;50.968;4.168;2023-03-24T10:02:52;19.05;;;3.00;;
19436;SDS011;9854;50.968;4.168;2023-03-24T10:05:22;16.02;;;3.20;;
19436;SDS011;9854;50.968;4.168;2023-03-24T10:08:04;11.27;;;2.95;;
19436;SDS011;9854;50.968;4.168;2023-03-24T10:13:20;11.57;;;3.05;;
19436;SDS011;9854;50.968;4.168;2023-03-24T10:16:32;17.05;;;3.47;;
19436;SDS011;9854;50.968;4.168;2023-03-24T10:21:52;11.85;;;3.05;;
19436;SDS011;9854;50.968;4.168;2023-03-24T10:25:09;14.80;;;3.70;;
19436;SDS011;9854;50.968;4.168;2023-03-24T10:27:19;12.07;;;3.22;;
19436;SDS011;9854;50.968;4.168;2023-03-24T10:30:02;15.10;;;3.45;;
19436;SDS011;9854;50.968;4.168;2023-03-24T10:32:39;12.70;;;2.90;;
19436;SDS011;9854;50.968;4.168;2023-03-24T10:35:06;10.57;;;3.00;;
19436;SDS011;9854;50.968;4.168;2023-03-24T10:37:43;15.82;;;3.67;;
19436;SDS011;9854;50.968;4.168;2023-03-24T10:40:13;17.15;;;3.88;;
19436;SDS011;9854;50.968;4.168;2023-03-24T10:42:42;10.43;;;3.15;;
19436;SDS011;9854;50.968;4.168;2023-03-24T10:45:11;9.52;;;3.70;;
19436;SDS011;9854;50.968;4.168;2023-03-24T10:47:38;12.60;;;3.60;;
19436;SDS011;9854;50.968;4.168;2023-03-24T10:50:06;9.38;;;3.45;;
19436;SDS011;9854;50.968;4.168;2023-03-24T10:52:40;14.77;;;4.15;;
19436;SDS011;9854;50.968;4.168;2023-03-24T10:55:13;12.32;;;4.07;;
19436;SDS011;9854;50.968;4.168;2023-03-24T10:57:47;9.05;;;3.92;;
19436;SDS011;9854;50.968;4.168;2023-03-24T11:00:20;13.63;;;4.25;;
19436;SDS011;9854;50.968;4.168;2023-03-24T11:03:07;16.92;;;3.30;;
19436;SDS011;9854;50.968;4.168;2023-03-24T11:05:39;11.05;;;3.38;;
19436;SDS011;9854;50.968;4.168;2023-03-24T11:08:22;14.27;;;3.58;;
19436;SDS011;9854;50.968;4.168;2023-03-24T11:10:52;14.25;;;3.17;;
19436;SDS011;9854;50.968;4.168;2023-03-24T11:13:29;8.30;;;1.90;;
19436;SDS011;9854;50.968;4.168;2023-03-24T11:18:30;6.43;;;2.13;;
19436;SDS011;9854;50.968;4.168;2023-03-24T11:20:57;5.13;;;1.70;;
19436;SDS011;9854;50.968;4.168;2023-03-24T11:26:07;6.32;;;1.85;;
19436;SDS011;9854;50.968;4.168;2023-03-24T11:28:39;7.85;;;2.35;;
19436;SDS011;9854;50.968;4.168;2023-03-24T11:31:11;7.30;;;1.92;;
19436;SDS011;9854;50.968;4.168;2023-03-24T11:36:36;8.82;;;3.05;;
19436;SDS011;9854;50.968;4.168;2023-03-24T11:41:57;8.18;;;2.28;;
19436;SDS011;9854;50.968;4.168;2023-03-24T11:47:05;10.75;;;3.03;;
19436;SDS011;9854;50.968;4.168;2023-03-24T11:52:55;12.68;;;2.85;;
19436;SDS011;9854;50.968;4.168;2023-03-24T11:55:37;11.70;;;3.08;;
19436;SDS011;9854;50.968;4.168;2023-03-24T11:58:20;8.27;;;2.83;;
19436;SDS011;9854;50.968;4.168;2023-03-24T12:00:57;9.75;;;2.72;;
19436;SDS011;9854;50.968;4.168;2023-03-24T12:06:18;20.40;;;3.60;;
19436;SDS011;9854;50.968;4.168;2023-03-24T12:09:13;11.73;;;3.35;;
19436;SDS011;9854;50.968;4.168;2023-03-24T12:12:09;10.25;;;3.10;;
19436;SDS011;9854;50.968;4.168;2023-03-24T12:17:40;8.10;;;2.15;;
19436;SDS011;9854;50.968;4.168;2023-03-24T12:25:31;12.82;;;3.00;;
19436;SDS011;9854;50.968;4.168;2023-03-24T12:39:08;9.07;;;2.72;;
19436;SDS011;9854;50.968;4.168;2023-03-24T12:53:00;11.77;;;3.15;;
19436;SDS011;9854;50.968;4.168;2023-03-24T12:55:38;13.57;;;3.72;;
19436;SDS011;9854;50.968;4.168;2023-03-24T13:04:05;7.07;;;1.73;;
19436;SDS011;9854;50.968;4.168;2023-03-24T13:06:33;5.80;;;1.67;;
19436;SDS011;9854;50.968;4.168;2023-03-24T13:11:46;5.05;;;1.52;;
19436;SDS011;9854;50.968;4.168;2023-03-24T13:14:28;5.57;;;1.10;;
19436;SDS011;9854;50.968;4.168;2023-03-24T13:16:59;4.82;;;1.55;;
19436;SDS011;9854;50.968;4.168;2023-03-24T13:19:32;5.30;;;1.40;;
19436;SDS011;9854;50.968;4.168;2023-03-24T13:22:00;5.03;;;1.70;;
19436;SDS011;9854;50.968;4.168;2023-03-24T13:24:28;5.18;;;1.40;;
19436;SDS011;9854;50.968;4.168;2023-03-24T13:32:00;8.95;;;1.60;;
19436;SDS011;9854;50.968;4.168;2023-03-24T13:39:36;10.73;;;1.83;;
19436;SDS011;9854;50.968;4.168;2023-03-24T13:42:03;4.25;;;1.55;;
19436;SDS011;9854;50.968;4.168;2023-03-24T13:49:31;8.27;;;1.83;;
19436;SDS011;9854;50.968;4.168;2023-03-24T13:52:00;7.60;;;1.73;;
19436;SDS011;9854;50.968;4.168;2023-03-24T13:54:27;5.47;;;1.80;;
19436;SDS011;9854;50.968;4.168;2023-03-24T14:02:46;9.70;;;2.53;;
19436;SDS011;9854;50.968;4.168;2023-03-24T14:08:20;6.25;;;1.40;;
19436;SDS011;9854;50.968;4.168;2023-03-24T14:13:55;4.82;;;1.67;;
19436;SDS011;9854;50.968;4.168;2023-03-24T14:19:29;6.65;;;1.70;;
19436;SDS011;9854;50.968;4.168;2023-03-24T14:21:57;8.38;;;1.40;;
19436;SDS011;9854;50.968;4.168;2023-03-24T14:24:33;12.35;;;1.60;;
19436;SDS011;9854;50.968;4.168;2023-03-24T14:26:59;7.82;;;1.75;;
19436;SDS011;9854;50.968;4.168;2023-03-24T14:32:15;3.75;;;1.50;;
19436;SDS011;9854;50.968;4.168;2023-03-24T14:34:54;3.05;;;1.13;;
19436;SDS011;9854;50.968;4.168;2023-03-24T14:37:24;3.75;;;1.40;;
19436;SDS011;9854;50.968;4.168;2023-03-24T14:39:51;5.63;;;1.60;;
19436;SDS011;9854;50.968;4.168;2023-03-24T14:42:27;5.95;;;1.63;;
19436;SDS011;9854;50.968;4.168;2023-03-24T14:48:05;8.25;;;1.20;;
19436;SDS011;9854;50.968;4.168;2023-03-24T14:50:49;6.88;;;1.80;;
19436;SDS011;9854;50.968;4.168;2023-03-24T14:53:18;8.13;;;1.55;;
19436;SDS011;9854;50.968;4.168;2023-03-24T14:55:46;8.80;;;1.65;;
19436;SDS011;9854;50.968;4.168;2023-03-24T14:58:23;4.40;;;1.52;;
19436;SDS011;9854;50.968;4.168;2023-03-24T15:00:57;8.20;;;1.90;;
19436;SDS011;9854;50.968;4.168;2023-03-24T15:03:30;7.82;;;2.10;;
19436;SDS011;9854;50.968;4.168;2023-03-24T15:08:43;7.43;;;1.73;;
19436;SDS011;9854;50.968;4.168;2023-03-24T15:11:14;9.30;;;2.03;;
19436;SDS011;9854;50.968;4.168;2023-03-24T15:13:48;6.45;;;1.70;;
19436;SDS011;9854;50.968;4.168;2023-03-24T15:16:17;7.57;;;1.83;;
19436;SDS011;9854;50.968;4.168;2023-03-24T15:21:35;9.35;;;1.98;;
19436;SDS011;9854;50.968;4.168;2023-03-24T15:26:46;9.45;;;1.33;;
19436;SDS011;9854;50.968;4.168;2023-03-24T15:29:13;8.57;;;1.63;;
19436;SDS011;9854;50.968;4.168;2023-03-24T15:31:39;6.30;;;1.65;;
19436;SDS011;9854;50.968;4.168;2023-03-24T15:34:06;7.15;;;1.48;;
19436;SDS011;9854;50.968;4.168;2023-03-24T15:36:51;7.93;;;1.92;;
19436;SDS011;9854;50.968;4.168;2023-03-24T15:39:19;9.77;;;1.60;;
19436;SDS011;9854;50.968;4.168;2023-03-24T15:41:49;6.43;;;1.83;;
19436;SDS011;9854;50.968;4.168;2023-03-24T15:44:19;7.43;;;1.60;;
19436;SDS011;9854;50.968;4.168;2023-03-24T15:46:48;15.73;;;7.38;;
19436;SDS011;9854;50.968;4.168;2023-03-24T15:49:29;7.20;;;2.50;;
19436;SDS011;9854;50.968;4.168;2023-03-24T15:54:37;8.50;;;1.70;;
19436;SDS011;9854;50.968;4.168;2023-03-24T15:57:12;6.35;;;1.45;;
19436;SDS011;9854;50.968;4.168;2023-03-24T15:59:44;6.68;;;2.38;;
19436;SDS011;9854;50.968;4.168;2023-03-24T16:02:20;7.03;;;1.80;;
19436;SDS011;9854;50.968;4.168;2023-03-24T16:05:03;6.75;;;1.67;;
19436;SDS011;9854;50.968;4.168;2023-03-24T16:07:38;5.75;;;1.40;;
19436;SDS011;9854;50.968;4.168;2023-03-24T16:10:06;3.97;;;1.40;;
19436;SDS011;9854;50.968;4.168;2023-03-24T16:12:49;5.70;;;1.63;;
19436;SDS011;9854;50.968;4.168;2023-03-24T16:15:15;7.30;;;1.80;;
19436;SDS011;9854;50.968;4.168;2023-03-24T16:17:41;6.97;;;2.00;;
19436;SDS011;9854;50.968;4.168;2023-03-24T16:20:12;3.40;;;1.30;;
19436;SDS011;9854;50.968;4.168;2023-03-24T16:22:43;9.68;;;1.38;;
19436;SDS011;9854;50.968;4.168;2023-03-24T16:25:10;3.53;;;1.63;;
19436;SDS011;9854;50.968;4.168;2023-03-24T16:27:37;5.30;;;1.33;;
19436;SDS011;9854;50.968;4.168;2023-03-24T16:30:16;6.07;;;1.88;;
19436;SDS011;9854;50.968;4.168;2023-03-24T16:32:49;4.60;;;1.25;;
19436;SDS011;9854;50.968;4.168;2023-03-24T16:35:15;6.03;;;1.38;;
19436;SDS011;9854;50.968;4.168;2023-03-24T16:37:42;4.63;;;1.60;;
19436;SDS011;9854;50.968;4.168;2023-03-24T16:40:15;6.32;;;2.03;;
19436;SDS011;9854;50.968;4.168;2023-03-24T16:42:46;9.13;;;1.88;;
19436;SDS011;9854;50.968;4.168;2023-03-24T16:45:12;5.65;;;1.63;;
19436;SDS011;9854;50.968;4.168;2023-03-24T16:47:38;6.07;;;2.13;;
19436;SDS011;9854;50.968;4.168;2023-03-24T16:52:47;7.72;;;2.03;;
19436;SDS011;9854;50.968;4.168;2023-03-24T16:55:13;8.35;;;1.73;;
19436;SDS011;9854;50.968;4.168;2023-03-24T16:57:39;7.15;;;1.63;;
19436;SDS011;9854;50.968;4.168;2023-03-24T17:00:05;6.20;;;1.80;;
19436;SDS011;9854;50.968;4.168;2023-03-24T17:02:35;5.18;;;2.00;;
19436;SDS011;9854;50.968;4.168;2023-03-24T17:08:01;5.65;;;1.83;;
19436;SDS011;9854;50.968;4.168;2023-03-24T17:10:27;4.53;;;1.65;;
19436;SDS011;9854;50.968;4.168;2023-03-24T17:12:53;7.57;;;2.10;;
19436;SDS011;9854;50.968;4.168;2023-03-24T17:15:21;5.20;;;1.60;;
19436;SDS011;9854;50.968;4.168;2023-03-24T17:17:51;8.82;;;2.00;;
19436;SDS011;9854;50.968;4.168;2023-03-24T17:20:18;5.28;;;1.58;;
19436;SDS011;9854;50.968;4.168;2023-03-24T17:22:45;5.25;;;1.50;;
19436;SDS011;9854;50.968;4.168;2023-03-24T17:25:14;4.20;;;1.55;;
19436;SDS011;9854;50.968;4.168;2023-03-24T17:27:42;5.45;;;1.65;;
19436;SDS011;9854;50.968;4.168;2023-03-24T17:30:09;4.25;;;1.38;;
19436;SDS011;9854;50.968;4.168;2023-03-24T17:32:40;3.38;;;1.00;;
19436;SDS011;9854;50.968;4.168;2023-03-24T17:35:08;2.50;;;1.08;;
19436;SDS011;9854;50.968;4.168;2023-03-24T17:37:35;3.20;;;1.20;;
19436;SDS011;9854;50.968;4.168;2023-03-24T17:40:01;3.10;;;1.10;;
19436;SDS011;9854;50.968;4.168;2023-03-24T17:42:34;2.60;;;0.88;;
19436;SDS011;9854;50.968;4.168;2023-03-24T17:45:01;5.03;;;1.35;;
19436;SDS011;9854;50.968;4.168;2023-03-24T17:47:28;3.08;;;1.20;;
19436;SDS011;9854;50.968;4.168;2023-03-24T17:49:54;3.33;;;1.13;;
19436;SDS011;9854;50.968;4.168;2023-03-24T17:52:20;4.25;;;1.20;;
19436;SDS011;9854;50.968;4.168;2023-03-24T17:54:46;2.53;;;1.05;;
19436;SDS011;9854;50.968;4.168;2023-03-24T17:57:11;4.88;;;1.38;;
19436;SDS011;9854;50.968;4.168;2023-03-24T17:59:37;4.47;;;1.08;;
19436;SDS011;9854;50.968;4.168;2023-03-24T18:02:03;1.95;;;1.00;;
19436;SDS011;9854;50.968;4.168;2023-03-24T18:04:30;2.38;;;1.40;;